sensor_id;sensor_type;location;lat;lon;timestamp;pressure;altitude;pressure_sealevel;temperature;humidity
26865;BME280;40618;51.166;10.322;2023-07-08T00:00:50;97805.19;;;20.46;41.54
26865;BME280;40618;51.166;10.322;2023-07-08T00:03:17;97808.03;;;20.43;41.69
26865;BME280;40618;51.166;10.322;2023-07-08T00:05:44;97806.22;;;20.43;41.75
26865;BME280;40618;51.166;10.322;2023-07-08T00:08:13;97800.13;;;20.43;41.52
26865;BME280;40618;51.166;10.322;2023-07-08T00:10:40;97797.72;;;20.40;41.39
26865;BME280;40618;51.166;10.322;2023-07-08T00:13:05;97795.81;;;20.42;41.40
26865;BME280;40618;51.166;10.322;2023-07-08T00:15:32;97796.56;;;20.44;41.34
26865;BME280;40618;51.166;10.322;2023-07-08T00:17:59;97798.28;;;20.45;41.37
26865;BME280;40618;51.166;10.322;2023-07-08T00:20:41;97788.78;;;20.42;41.45
26865;BME280;40618;51.166;10.322;2023-07-08T00:23:10;97796.22;;;20.36;41.36
26865;BME280;40618;51.166;10.322;2023-07-08T00:25:37;97790.31;;;20.32;41.39
26865;BME280;40618;51.166;10.322;2023-07-08T00:28:17;97793.16;;;20.29;41.43
26865;BME280;40618;51.166;10.322;2023-07-08T00:30:46;97781.97;;;20.25;41.35
26865;BME280;40618;51.166;10.322;2023-07-08T00:33:12;97777.03;;;20.21;41.51
26865;BME280;40618;51.166;10.322;2023-07-08T00:35:41;97780.88;;;20.15;41.45
26865;BME280;40618;51.166;10.322;2023-07-08T00:41:43;97787.56;;;20.06;41.59
26865;BME280;40618;51.166;10.322;2023-07-08T00:44:10;97783.34;;;20.04;41.68
26865;BME280;40618;51.166;10.322;2023-07-08T00:46:46;97787.41;;;19.95;41.78
26865;BME280;40618;51.166;10.322;2023-07-08T00:49:34;97791.25;;;19.89;41.79
26865;BME280;40618;51.166;10.322;2023-07-08T00:52:16;97784.84;;;19.79;42.04
26865;BME280;40618;51.166;10.322;2023-07-08T00:54:42;97784.50;;;19.71;42.28
26865;BME280;40618;51.166;10.322;2023-07-08T00:57:07;97780.94;;;19.72;42.18
26865;BME280;40618;51.166;10.322;2023-07-08T00:59:39;97779.53;;;19.66;42.25
26865;BME280;40618;51.166;10.322;2023-07-08T01:02:11;97788.25;;;19.67;42.09
26865;BME280;40618;51.166;10.322;2023-07-08T01:07:19;97786.84;;;19.61;42.17
26865;BME280;40618;51.166;10.322;2023-07-08T01:09:48;97785.44;;;19.55;42.38
26865;BME280;40618;51.166;10.322;2023-07-08T01:12:27;97779.91;;;19.45;42.30
26865;BME280;40618;51.166;10.322;2023-07-08T01:14:58;97782.53;;;19.45;42.41
26865;BME280;40618;51.166;10.322;2023-07-08T01:17:28;97777.38;;;19.44;42.38
26865;BME280;40618;51.166;10.322;2023-07-08T01:20:01;97778.13;;;19.46;42.45
26865;BME280;40618;51.166;10.322;2023-07-08T01:22:37;97781.69;;;19.45;42.35
26865;BME280;40618;51.166;10.322;2023-07-08T01:25:05;97780.84;;;19.44;42.52
26865;BME280;40618;51.166;10.322;2023-07-08T01:27:36;97774.00;;;19.42;42.48
26865;BME280;40618;51.166;10.322;2023-07-08T01:30:05;97770.63;;;19.40;42.56
26865;BME280;40618;51.166;10.322;2023-07-08T01:32:37;97772.50;;;19.38;42.67
26865;BME280;40618;51.166;10.322;2023-07-08T01:35:09;97769.22;;;19.34;42.58
26865;BME280;40618;51.166;10.322;2023-07-08T01:37:39;97770.63;;;19.25;42.49
26865;BME280;40618;51.166;10.322;2023-07-08T01:42:56;97765.09;;;19.16;42.60
26865;BME280;40618;51.166;10.322;2023-07-08T01:45:25;97763.47;;;19.13;42.90
26865;BME280;40618;51.166;10.322;2023-07-08T01:48:07;97765.19;;;19.14;42.89
26865;BME280;40618;51.166;10.322;2023-07-08T01:50:38;97750.16;;;19.16;42.83
26865;BME280;40618;51.166;10.322;2023-07-08T01:53:19;97747.81;;;19.11;42.62
26865;BME280;40618;51.166;10.322;2023-07-08T01:55:46;97742.38;;;19.15;43.13
26865;BME280;40618;51.166;10.322;2023-07-08T01:58:12;97738.53;;;19.20;42.78
26865;BME280;40618;51.166;10.322;2023-07-08T02:00:38;97735.09;;;19.20;42.79
26865;BME280;40618;51.166;10.322;2023-07-08T02:03:03;97742.03;;;19.21;42.62
26865;BME280;40618;51.166;10.322;2023-07-08T02:05:29;97745.28;;;19.24;42.81
26865;BME280;40618;51.166;10.322;2023-07-08T02:07:55;97741.84;;;19.24;42.57
26865;BME280;40618;51.166;10.322;2023-07-08T02:10:21;97744.66;;;19.21;42.86
26865;BME280;40618;51.166;10.322;2023-07-08T02:12:47;97729.94;;;19.18;42.86
26865;BME280;40618;51.166;10.322;2023-07-08T02:15:13;97736.09;;;19.17;42.75
26865;BME280;40618;51.166;10.322;2023-07-08T02:17:38;97737.03;;;19.16;42.77
26865;BME280;40618;51.166;10.322;2023-07-08T02:20:04;97737.03;;;19.16;42.92
26865;BME280;40618;51.166;10.322;2023-07-08T02:22:30;97735.47;;;19.14;43.00
26865;BME280;40618;51.166;10.322;2023-07-08T02:24:56;97735.47;;;19.14;42.99
26865;BME280;40618;51.166;10.322;2023-07-08T02:27:22;97735.47;;;19.14;42.81
26865;BME280;40618;51.166;10.322;2023-07-08T02:29:47;97743.59;;;19.09;43.01
26865;BME280;40618;51.166;10.322;2023-07-08T02:32:13;97730.56;;;19.07;42.99
26865;BME280;40618;51.166;10.322;2023-07-08T02:34:38;97735.53;;;18.98;43.08
26865;BME280;40618;51.166;10.322;2023-07-08T02:37:04;97736.56;;;18.95;43.34
26865;BME280;40618;51.166;10.322;2023-07-08T02:39:30;97741.13;;;18.91;43.29
26865;BME280;40618;51.166;10.322;2023-07-08T02:41:55;97743.03;;;18.89;43.55
26865;BME280;40618;51.166;10.322;2023-07-08T02:44:22;97743.19;;;18.86;43.23
26865;BME280;40618;51.166;10.322;2023-07-08T02:46:47;97739.97;;;18.81;43.37
26865;BME280;40618;51.166;10.322;2023-07-08T02:49:13;97733.03;;;18.80;43.29
26865;BME280;40618;51.166;10.322;2023-07-08T02:51:38;97732.00;;;18.83;43.47
26865;BME280;40618;51.166;10.322;2023-07-08T02:54:04;97725.94;;;18.82;43.47
26865;BME280;40618;51.166;10.322;2023-07-08T02:56:29;97732.84;;;18.83;43.46
26865;BME280;40618;51.166;10.322;2023-07-08T02:58:55;97735.56;;;18.82;43.72
26865;BME280;40618;51.166;10.322;2023-07-08T03:01:20;97739.97;;;18.81;43.69
26865;BME280;40618;51.166;10.322;2023-07-08T03:03:47;97744.31;;;18.82;43.39
26865;BME280;40618;51.166;10.322;2023-07-08T03:06:13;97741.94;;;18.77;43.57
26865;BME280;40618;51.166;10.322;2023-07-08T03:08:39;97745.66;;;18.73;43.47
26865;BME280;40618;51.166;10.322;2023-07-08T03:11:07;97748.38;;;18.72;43.73
26865;BME280;40618;51.166;10.322;2023-07-08T03:13:34;97744.34;;;18.66;43.87
26865;BME280;40618;51.166;10.322;2023-07-08T03:16:01;97742.94;;;18.60;44.00
26865;BME280;40618;51.166;10.322;2023-07-08T03:18:28;97746.66;;;18.56;43.96
26865;BME280;40618;51.166;10.322;2023-07-08T03:20:56;97750.13;;;18.57;43.93
26865;BME280;40618;51.166;10.322;2023-07-08T03:23:23;97752.06;;;18.53;43.94
26865;BME280;40618;51.166;10.322;2023-07-08T03:25:50;97746.16;;;18.50;44.22
26865;BME280;40618;51.166;10.322;2023-07-08T03:28:16;97744.19;;;18.53;44.07
26865;BME280;40618;51.166;10.322;2023-07-08T03:30:43;97750.41;;;18.52;44.30
26865;BME280;40618;51.166;10.322;2023-07-08T03:33:10;97753.66;;;18.56;44.20
26865;BME280;40618;51.166;10.322;2023-07-08T03:35:37;97750.13;;;18.57;44.36
26865;BME280;40618;51.166;10.322;2023-07-08T03:38:05;97749.94;;;18.60;44.00
26865;BME280;40618;51.166;10.322;2023-07-08T03:40:31;97743.84;;;18.59;44.30
26865;BME280;40618;51.166;10.322;2023-07-08T03:42:57;97744.53;;;18.63;44.07
26865;BME280;40618;51.166;10.322;2023-07-08T03:45:22;97748.81;;;18.64;44.05
26865;BME280;40618;51.166;10.322;2023-07-08T03:47:50;97763.91;;;18.60;44.43
26865;BME280;40618;51.166;10.322;2023-07-08T03:50:24;97764.06;;;18.57;44.63
26865;BME280;40618;51.166;10.322;2023-07-08T03:52:52;97761.72;;;18.53;44.51
26865;BME280;40618;51.166;10.322;2023-07-08T03:55:19;97756.38;;;18.54;44.55
26865;BME280;40618;51.166;10.322;2023-07-08T03:57:45;97754.63;;;18.55;44.63
26865;BME280;40618;51.166;10.322;2023-07-08T04:00:12;97759.88;;;18.55;44.74
26865;BME280;40618;51.166;10.322;2023-07-08T04:02:40;97760.78;;;18.54;44.65
26865;BME280;40618;51.166;10.322;2023-07-08T04:05:06;97755.72;;;18.51;44.77
26865;BME280;40618;51.166;10.322;2023-07-08T04:07:34;97759.47;;;18.47;44.71
26865;BME280;40618;51.166;10.322;2023-07-08T04:10:00;97752.78;;;18.41;44.87
26865;BME280;40618;51.166;10.322;2023-07-08T04:12:27;97756.78;;;18.32;45.08
26865;BME280;40618;51.166;10.322;2023-07-08T04:14:52;97758.81;;;18.27;45.33
26865;BME280;40618;51.166;10.322;2023-07-08T04:17:18;97766.84;;;18.24;45.51
26865;BME280;40618;51.166;10.322;2023-07-08T04:19:44;97760.78;;;18.23;45.45
26865;BME280;40618;51.166;10.322;2023-07-08T04:22:10;97761.50;;;18.25;45.47
26865;BME280;40618;51.166;10.322;2023-07-08T04:24:36;97766.75;;;18.25;45.79
26865;BME280;40618;51.166;10.322;2023-07-08T04:27:02;97773.69;;;18.26;45.79
26865;BME280;40618;51.166;10.322;2023-07-08T04:29:28;97773.50;;;18.30;45.86
26865;BME280;40618;51.166;10.322;2023-07-08T04:31:54;97773.44;;;18.31;45.96
26865;BME280;40618;51.166;10.322;2023-07-08T04:34:20;97772.50;;;18.32;46.03
26865;BME280;40618;51.166;10.322;2023-07-08T04:36:46;97775.31;;;18.29;46.07
26865;BME280;40618;51.166;10.322;2023-07-08T04:39:12;97770.91;;;18.30;46.19
26865;BME280;40618;51.166;10.322;2023-07-08T04:41:39;97770.63;;;18.34;46.23
26865;BME280;40618;51.166;10.322;2023-07-08T04:44:12;97773.84;;;18.39;46.44
26865;BME280;40618;51.166;10.322;2023-07-08T04:46:42;97768.34;;;18.44;46.63
26865;BME280;40618;51.166;10.322;2023-07-08T04:49:12;97770.59;;;18.50;46.45
26865;BME280;40618;51.166;10.322;2023-07-08T04:51:41;97767.88;;;18.52;46.89
26865;BME280;40618;51.166;10.322;2023-07-08T04:54:07;97767.66;;;18.56;46.83
26865;BME280;40618;51.166;10.322;2023-07-08T04:56:37;97765.66;;;18.60;46.86
26865;BME280;40618;51.166;10.322;2023-07-08T04:59:07;97763.22;;;18.57;47.01
26865;BME280;40618;51.166;10.322;2023-07-08T05:01:34;97768.28;;;18.60;47.09
26865;BME280;40618;51.166;10.322;2023-07-08T05:04:00;97773.38;;;18.63;47.20
26865;BME280;40618;51.166;10.322;2023-07-08T05:06:26;97770.66;;;18.65;47.17
26865;BME280;40618;51.166;10.322;2023-07-08T05:08:53;97772.19;;;18.69;47.38
26865;BME280;40618;51.166;10.322;2023-07-08T05:11:18;97771.31;;;18.68;47.52
26865;BME280;40618;51.166;10.322;2023-07-08T05:13:44;97778.25;;;18.69;47.87
26865;BME280;40618;51.166;10.322;2023-07-08T05:16:09;97773.78;;;18.71;47.62
26865;BME280;40618;51.166;10.322;2023-07-08T05:18:35;97778.06;;;18.72;47.81
26865;BME280;40618;51.166;10.322;2023-07-08T05:21:02;97773.94;;;18.68;47.91
26865;BME280;40618;51.166;10.322;2023-07-08T05:23:28;97770.56;;;18.66;48.19
26865;BME280;40618;51.166;10.322;2023-07-08T05:25:54;97757.09;;;18.72;48.11
26865;BME280;40618;51.166;10.322;2023-07-08T05:28:20;97760.56;;;18.73;48.15
26865;BME280;40618;51.166;10.322;2023-07-08T05:30:52;97761.31;;;18.75;48.32
26865;BME280;40618;51.166;10.322;2023-07-08T05:33:20;97760.19;;;18.79;48.27
26865;BME280;40618;51.166;10.322;2023-07-08T05:35:46;97754.69;;;18.84;48.54
26865;BME280;40618;51.166;10.322;2023-07-08T05:38:11;97760.53;;;18.89;48.54
26865;BME280;40618;51.166;10.322;2023-07-08T05:40:37;97763.72;;;18.94;48.55
26865;BME280;40618;51.166;10.322;2023-07-08T05:43:02;97769.47;;;19.01;48.86
26865;BME280;40618;51.166;10.322;2023-07-08T05:45:28;97769.13;;;19.07;48.61
26865;BME280;40618;51.166;10.322;2023-07-08T05:47:54;97768.63;;;19.15;48.96
26865;BME280;40618;51.166;10.322;2023-07-08T05:50:19;97770.31;;;19.16;48.67
26865;BME280;40618;51.166;10.322;2023-07-08T05:52:45;97774.56;;;19.18;48.84
26865;BME280;40618;51.166;10.322;2023-07-08T05:55:10;97771.47;;;19.26;48.82
26865;BME280;40618;51.166;10.322;2023-07-08T05:57:36;97776.44;;;19.31;49.19
26865;BME280;40618;51.166;10.322;2023-07-08T06:00:03;97780.38;;;19.38;49.14
26865;BME280;40618;51.166;10.322;2023-07-08T06:02:30;97771.16;;;19.45;49.16
26865;BME280;40618;51.166;10.322;2023-07-08T06:04:55;97770.81;;;19.51;49.19
26865;BME280;40618;51.166;10.322;2023-07-08T06:07:21;97770.63;;;19.54;49.42
26865;BME280;40618;51.166;10.322;2023-07-08T06:09:46;97778.22;;;19.59;49.31
26865;BME280;40618;51.166;10.322;2023-07-08T06:12:12;97782.25;;;19.65;49.28
26865;BME280;40618;51.166;10.322;2023-07-08T06:14:38;97787.41;;;19.66;49.07
26865;BME280;40618;51.166;10.322;2023-07-08T06:17:04;97789.09;;;19.67;49.09
26865;BME280;40618;51.166;10.322;2023-07-08T06:19:30;97787.13;;;19.71;49.20
26865;BME280;40618;51.166;10.322;2023-07-08T06:21:57;97795.31;;;19.81;49.28
26865;BME280;40618;51.166;10.322;2023-07-08T06:24:23;97794.09;;;19.86;49.07
26865;BME280;40618;51.166;10.322;2023-07-08T06:26:49;97797.19;;;19.93;49.08
26865;BME280;40618;51.166;10.322;2023-07-08T06:29:14;97795.09;;;19.98;49.16
26865;BME280;40618;51.166;10.322;2023-07-08T06:31:41;97793.56;;;20.08;48.99
26865;BME280;40618;51.166;10.322;2023-07-08T06:34:07;97784.44;;;20.14;48.90
26865;BME280;40618;51.166;10.322;2023-07-08T06:36:32;97787.53;;;20.21;48.89
26865;BME280;40618;51.166;10.322;2023-07-08T06:38:58;97783.66;;;20.26;48.87
26865;BME280;40618;51.166;10.322;2023-07-08T06:41:24;97788.13;;;20.39;48.83
26865;BME280;40618;51.166;10.322;2023-07-08T06:43:49;97789.22;;;20.49;48.58
26865;BME280;40618;51.166;10.322;2023-07-08T06:46:16;97785.25;;;20.56;48.74
26865;BME280;40618;51.166;10.322;2023-07-08T06:48:43;97783.16;;;20.61;48.59
26865;BME280;40618;51.166;10.322;2023-07-08T06:51:09;97783.78;;;20.65;48.72
26865;BME280;40618;51.166;10.322;2023-07-08T06:53:35;97788.59;;;20.73;48.72
26865;BME280;40618;51.166;10.322;2023-07-08T06:56:01;97791.56;;;20.81;48.60
26865;BME280;40618;51.166;10.322;2023-07-08T06:58:27;97783.97;;;20.89;48.58
26865;BME280;40618;51.166;10.322;2023-07-08T07:00:53;97783.38;;;20.99;48.34
26865;BME280;40618;51.166;10.322;2023-07-08T07:03:19;97784.63;;;21.06;48.48
26865;BME280;40618;51.166;10.322;2023-07-08T07:05:45;97777.16;;;21.12;48.48
26865;BME280;40618;51.166;10.322;2023-07-08T07:08:10;97780.13;;;21.21;48.29
26865;BME280;40618;51.166;10.322;2023-07-08T07:10:36;97768.97;;;21.30;47.94
26865;BME280;40618;51.166;10.322;2023-07-08T07:13:02;97774.53;;;21.51;48.20
26865;BME280;40618;51.166;10.322;2023-07-08T07:15:27;97774.66;;;21.62;47.99
26865;BME280;40618;51.166;10.322;2023-07-08T07:17:56;97774.09;;;21.70;48.00
26865;BME280;40618;51.166;10.322;2023-07-08T07:20:22;97775.28;;;21.79;47.95
26865;BME280;40618;51.166;10.322;2023-07-08T07:22:47;97776.63;;;21.85;47.91
26865;BME280;40618;51.166;10.322;2023-07-08T07:25:13;97784.06;;;21.91;48.05
26865;BME280;40618;51.166;10.322;2023-07-08T07:27:39;97790.63;;;21.98;47.96
26865;BME280;40618;51.166;10.322;2023-07-08T07:30:05;97781.41;;;22.04;47.62
26865;BME280;40618;51.166;10.322;2023-07-08T07:32:31;97786.63;;;22.17;47.81
26865;BME280;40618;51.166;10.322;2023-07-08T07:34:58;97781.84;;;22.35;47.69
26865;BME280;40618;51.166;10.322;2023-07-08T07:37:25;97789.50;;;22.51;47.51
26865;BME280;40618;51.166;10.322;2023-07-08T07:39:51;97785.94;;;22.63;47.25
26865;BME280;40618;51.166;10.322;2023-07-08T07:42:18;97788.03;;;22.71;47.11
26865;BME280;40618;51.166;10.322;2023-07-08T07:44:45;97788.19;;;22.80;47.07
26865;BME280;40618;51.166;10.322;2023-07-08T07:47:11;97783.78;;;22.92;47.02
26865;BME280;40618;51.166;10.322;2023-07-08T07:49:37;97789.09;;;23.04;46.87
26865;BME280;40618;51.166;10.322;2023-07-08T07:52:04;97779.72;;;23.11;46.64
26865;BME280;40618;51.166;10.322;2023-07-08T07:54:31;97785.91;;;23.23;46.86
26865;BME280;40618;51.166;10.322;2023-07-08T07:56:56;97781.00;;;23.29;46.70
26865;BME280;40618;51.166;10.322;2023-07-08T07:59:22;97785.09;;;23.34;46.60
26865;BME280;40618;51.166;10.322;2023-07-08T08:01:48;97782.81;;;23.40;46.67
26865;BME280;40618;51.166;10.322;2023-07-08T08:04:13;97773.56;;;23.57;46.64
26865;BME280;40618;51.166;10.322;2023-07-08T08:06:39;97781.97;;;23.74;46.34
26865;BME280;40618;51.166;10.322;2023-07-08T08:09:06;97776.09;;;23.93;46.28
26865;BME280;40618;51.166;10.322;2023-07-08T08:11:32;97780.50;;;24.15;45.86
26865;BME280;40618;51.166;10.322;2023-07-08T08:14:00;97775.56;;;24.22;45.58
26865;BME280;40618;51.166;10.322;2023-07-08T08:16:26;97785.53;;;24.29;45.50
26865;BME280;40618;51.166;10.322;2023-07-08T08:18:51;97786.34;;;24.41;45.05
26865;BME280;40618;51.166;10.322;2023-07-08T08:21:17;97785.34;;;24.54;44.52
26865;BME280;40618;51.166;10.322;2023-07-08T08:23:43;97782.94;;;24.62;44.40
26865;BME280;40618;51.166;10.322;2023-07-08T08:26:09;97781.97;;;24.84;44.39
26865;BME280;40618;51.166;10.322;2023-07-08T08:28:34;97789.03;;;24.95;44.15
26865;BME280;40618;51.166;10.322;2023-07-08T08:31:00;97792.00;;;25.02;44.12
26865;BME280;40618;51.166;10.322;2023-07-08T08:33:26;97783.66;;;25.06;43.60
26865;BME280;40618;51.166;10.322;2023-07-08T08:35:51;97773.88;;;25.07;43.41
26865;BME280;40618;51.166;10.322;2023-07-08T08:38:17;97780.03;;;25.07;43.20
26865;BME280;40618;51.166;10.322;2023-07-08T08:40:43;97778.84;;;25.00;43.67
26865;BME280;40618;51.166;10.322;2023-07-08T08:43:13;97787.00;;;24.87;43.98
26865;BME280;40618;51.166;10.322;2023-07-08T08:45:53;97793.31;;;24.75;44.25
26865;BME280;40618;51.166;10.322;2023-07-08T08:48:26;97795.25;;;24.73;44.73
26865;BME280;40618;51.166;10.322;2023-07-08T08:51:00;97791.16;;;24.80;44.72
26865;BME280;40618;51.166;10.322;2023-07-08T08:53:47;97795.03;;;24.97;44.63
26865;BME280;40618;51.166;10.322;2023-07-08T08:56:22;97802.34;;;25.05;44.57
26865;BME280;40618;51.166;10.322;2023-07-08T08:59:42;97802.25;;;25.16;44.46
26865;BME280;40618;51.166;10.322;2023-07-08T09:02:33;97806.50;;;25.40;44.36
26865;BME280;40618;51.166;10.322;2023-07-08T09:05:09;97800.69;;;25.56;44.55
26865;BME280;40618;51.166;10.322;2023-07-08T09:10:53;97796.81;;;25.91;43.85
26865;BME280;40618;51.166;10.322;2023-07-08T09:13:33;97799.66;;;26.09;43.72
26865;BME280;40618;51.166;10.322;2023-07-08T09:19:23;97792.03;;;26.35;43.10
26865;BME280;40618;51.166;10.322;2023-07-08T09:22:15;97790.38;;;26.44;42.50
26865;BME280;40618;51.166;10.322;2023-07-08T09:28:01;97792.91;;;27.04;41.48
26865;BME280;40618;51.166;10.322;2023-07-08T09:30:27;97797.38;;;27.13;41.14
26865;BME280;40618;51.166;10.322;2023-07-08T09:32:56;97790.81;;;27.17;41.02
26865;BME280;40618;51.166;10.322;2023-07-08T09:35:46;97794.81;;;27.31;40.57
26865;BME280;40618;51.166;10.322;2023-07-08T09:38:18;97789.03;;;27.56;40.41
26865;BME280;40618;51.166;10.322;2023-07-08T09:40:49;97784.91;;;27.71;39.54
26865;BME280;40618;51.166;10.322;2023-07-08T09:43:25;97782.72;;;27.94;39.39
26865;BME280;40618;51.166;10.322;2023-07-08T09:45:57;97784.59;;;28.12;39.13
26865;BME280;40618;51.166;10.322;2023-07-08T09:48:26;97790.03;;;28.20;39.21
26865;BME280;40618;51.166;10.322;2023-07-08T09:50:59;97782.03;;;28.20;38.97
26865;BME280;40618;51.166;10.322;2023-07-08T09:53:26;97783.16;;;28.17;38.76
26865;BME280;40618;51.166;10.322;2023-07-08T09:55:54;97785.03;;;28.07;38.56
26865;BME280;40618;51.166;10.322;2023-07-08T09:58:30;97790.78;;;28.30;38.08
26865;BME280;40618;51.166;10.322;2023-07-08T10:01:01;97784.63;;;28.48;37.59
26865;BME280;40618;51.166;10.322;2023-07-08T10:03:35;97777.41;;;28.58;37.43
26865;BME280;40618;51.166;10.322;2023-07-08T10:06:20;97785.69;;;28.55;37.51
26865;BME280;40618;51.166;10.322;2023-07-08T10:08:54;97782.28;;;28.63;37.39
26865;BME280;40618;51.166;10.322;2023-07-08T10:11:36;97789.06;;;28.57;37.21
26865;BME280;40618;51.166;10.322;2023-07-08T10:16:53;97779.91;;;28.96;36.49
26865;BME280;40618;51.166;10.322;2023-07-08T10:19:20;97778.06;;;28.96;35.83
26865;BME280;40618;51.166;10.322;2023-07-08T10:22:02;97783.84;;;28.65;35.95
26865;BME280;40618;51.166;10.322;2023-07-08T10:27:58;97784.09;;;28.98;35.86
26865;BME280;40618;51.166;10.322;2023-07-08T10:30:56;97769.72;;;28.91;35.77
26865;BME280;40618;51.166;10.322;2023-07-08T10:33:42;97772.06;;;28.94;35.87
26865;BME280;40618;51.166;10.322;2023-07-08T10:44:45;97764.63;;;28.62;34.85
26865;BME280;40618;51.166;10.322;2023-07-08T10:47:49;97762.38;;;28.67;34.65
26865;BME280;40618;51.166;10.322;2023-07-08T10:56:10;97770.28;;;28.77;34.29
26865;BME280;40618;51.166;10.322;2023-07-08T11:07:32;97765.28;;;29.00;34.40
26865;BME280;40618;51.166;10.322;2023-07-08T11:10:16;97761.31;;;29.04;34.09
26865;BME280;40618;51.166;10.322;2023-07-08T11:12:57;97747.09;;;29.21;34.09
26865;BME280;40618;51.166;10.322;2023-07-08T11:15:36;97751.38;;;29.32;33.87
26865;BME280;40618;51.166;10.322;2023-07-08T11:21:24;97749.44;;;29.51;33.87
26865;BME280;40618;51.166;10.322;2023-07-08T11:24:22;97761.31;;;29.57;33.43
26865;BME280;40618;51.166;10.322;2023-07-08T11:26:50;97756.19;;;29.63;33.26
26865;BME280;40618;51.166;10.322;2023-07-08T11:29:25;97749.50;;;29.59;33.50
26865;BME280;40618;51.166;10.322;2023-07-08T11:32:01;97755.09;;;29.48;33.02
26865;BME280;40618;51.166;10.322;2023-07-08T11:34:29;97751.22;;;29.34;33.11
26865;BME280;40618;51.166;10.322;2023-07-08T11:36:58;97750.72;;;29.38;33.24
26865;BME280;40618;51.166;10.322;2023-07-08T11:39:47;97758.97;;;29.88;33.08
26865;BME280;40618;51.166;10.322;2023-07-08T11:42:43;97744.63;;;29.89;32.64
26865;BME280;40618;51.166;10.322;2023-07-08T11:47:46;97748.88;;;29.65;32.61
26865;BME280;40618;51.166;10.322;2023-07-08T11:50:23;97738.34;;;30.07;32.73
26865;BME280;40618;51.166;10.322;2023-07-08T11:52:59;97738.75;;;30.36;32.21
26865;BME280;40618;51.166;10.322;2023-07-08T11:56:22;97741.97;;;30.57;32.02
26865;BME280;40618;51.166;10.322;2023-07-08T11:58:26;97743.13;;;30.79;31.89
26865;BME280;40618;51.166;10.322;2023-07-08T12:01:03;97742.97;;;30.47;31.62
26865;BME280;40618;51.166;10.322;2023-07-08T12:03:49;97732.22;;;30.31;31.73
26865;BME280;40618;51.166;10.322;2023-07-08T12:08:58;97729.50;;;30.06;31.35
26865;BME280;40618;51.166;10.322;2023-07-08T12:11:34;97723.34;;;30.14;31.36
26865;BME280;40618;51.166;10.322;2023-07-08T12:14:02;97722.34;;;30.15;31.51
26865;BME280;40618;51.166;10.322;2023-07-08T12:16:31;97722.38;;;30.31;31.45
26865;BME280;40618;51.166;10.322;2023-07-08T12:19:01;97724.41;;;30.37;31.12
26865;BME280;40618;51.166;10.322;2023-07-08T12:21:30;97717.59;;;30.68;31.00
26865;BME280;40618;51.166;10.322;2023-07-08T12:24:04;97716.41;;;30.79;31.17
26865;BME280;40618;51.166;10.322;2023-07-08T12:26:33;97717.22;;;30.79;30.63
26865;BME280;40618;51.166;10.322;2023-07-08T12:28:59;97712.59;;;30.65;30.38
26865;BME280;40618;51.166;10.322;2023-07-08T12:31:24;97712.03;;;30.36;30.67
26865;BME280;40618;51.166;10.322;2023-07-08T12:33:50;97713.03;;;30.35;30.50
26865;BME280;40618;51.166;10.322;2023-07-08T12:36:26;97704.88;;;30.45;30.40
26865;BME280;40618;51.166;10.322;2023-07-08T12:38:56;97702.34;;;30.77;30.53
26865;BME280;40618;51.166;10.322;2023-07-08T12:41:25;97701.34;;;30.86;30.59
26865;BME280;40618;51.166;10.322;2023-07-08T12:43:55;97699.53;;;31.03;30.75
26865;BME280;40618;51.166;10.322;2023-07-08T12:46:22;97699.34;;;31.13;30.73
26865;BME280;40618;51.166;10.322;2023-07-08T12:48:49;97702.78;;;31.30;30.50
26865;BME280;40618;51.166;10.322;2023-07-08T12:51:18;97697.03;;;31.49;30.26
26865;BME280;40618;51.166;10.322;2023-07-08T12:53:47;97686.03;;;31.44;30.30
26865;BME280;40618;51.166;10.322;2023-07-08T12:56:13;97692.59;;;31.33;30.06
26865;BME280;40618;51.166;10.322;2023-07-08T12:58:43;97686.78;;;31.21;30.09
26865;BME280;40618;51.166;10.322;2023-07-08T13:01:17;97693.13;;;31.20;30.20
26865;BME280;40618;51.166;10.322;2023-07-08T13:03:48;97690.25;;;31.22;30.10
26865;BME280;40618;51.166;10.322;2023-07-08T13:06:20;97682.59;;;31.19;30.07
26865;BME280;40618;51.166;10.322;2023-07-08T13:08:48;97686.94;;;31.20;30.09
26865;BME280;40618;51.166;10.322;2023-07-08T13:11:16;97683.28;;;31.21;30.04
26865;BME280;40618;51.166;10.322;2023-07-08T13:13:53;97679.03;;;31.35;29.83
26865;BME280;40618;51.166;10.322;2023-07-08T13:16:23;97680.00;;;31.42;29.79
26865;BME280;40618;51.166;10.322;2023-07-08T13:18:55;97683.69;;;31.41;29.66
26865;BME280;40618;51.166;10.322;2023-07-08T13:21:21;97684.88;;;31.38;29.64
26865;BME280;40618;51.166;10.322;2023-07-08T13:23:50;97684.50;;;31.50;29.85
26865;BME280;40618;51.166;10.322;2023-07-08T13:26:17;97683.09;;;31.70;29.72
26865;BME280;40618;51.166;10.322;2023-07-08T13:28:45;97683.81;;;31.87;29.52
26865;BME280;40618;51.166;10.322;2023-07-08T13:31:23;97686.44;;;31.96;29.69
26865;BME280;40618;51.166;10.322;2023-07-08T13:33:56;97683.50;;;32.14;29.85
26865;BME280;40618;51.166;10.322;2023-07-08T13:36:33;97674.91;;;32.27;29.53
26865;BME280;40618;51.166;10.322;2023-07-08T13:39:03;97678.59;;;32.26;29.50
26865;BME280;40618;51.166;10.322;2023-07-08T13:41:31;97680.00;;;32.36;29.24
26865;BME280;40618;51.166;10.322;2023-07-08T13:44:04;97675.50;;;32.37;28.80
26865;BME280;40618;51.166;10.322;2023-07-08T13:46:35;97678.31;;;32.12;28.92
26865;BME280;40618;51.166;10.322;2023-07-08T13:49:14;97683.22;;;31.77;28.98
26865;BME280;40618;51.166;10.322;2023-07-08T13:51:46;97682.59;;;31.67;29.21
26865;BME280;40618;51.166;10.322;2023-07-08T13:56:44;97677.16;;;32.15;29.27
26865;BME280;40618;51.166;10.322;2023-07-08T13:59:23;97673.78;;;32.21;28.81
26865;BME280;40618;51.166;10.322;2023-07-08T14:01:53;97669.66;;;32.33;29.14